Time;durP1;ratioP1;P1;durP2;ratioP2;P2;SDS_P1;SDS_P2;PMS_P1;PMS_P2;Temp;Humidity;BMP_temperature;BMP_pressure;BME280_temperature;BME280_humidity;BME280_pressure;Samples;Min_cycle;Max_cycle;Signal;HPM_P1;HPM_P2
2023/11/04 00:00:00;;;;;;;1.07;0.97;;;9.90;99.90;;;;;;5012395;28;20222;-92
2023/11/04 00:02:26;;;;;;;1.20;1.10;;;9.90;99.90;;;;;;5015116;28;20282;-91
2023/11/04 00:04:55;;;;;;;0.77;0.60;;;9.90;99.90;;;;;;5031109;28;20205;-93
2023/11/04 00:07:21;;;;;;;1.20;1.00;;;10.00;99.90;;;;;;5032584;28;20210;-92
2023/11/04 00:09:47;;;;;;;1.17;0.80;;;9.90;99.90;;;;;;5017041;28;20236;-92
2023/11/04 00:12:13;;;;;;;2.13;1.30;;;9.90;99.90;;;;;;4999581;28;20678;-92
2023/11/04 00:14:40;;;;;;;1.63;0.77;;;9.90;99.90;;;;;;4997101;28;20208;-92
2023/11/04 00:17:06;;;;;;;0.50;0.50;;;9.90;99.90;;;;;;5033640;28;20729;-92
2023/11/04 00:19:32;;;;;;;1.43;0.87;;;9.90;99.90;;;;;;4997233;28;20222;-91
2023/11/04 00:21:58;;;;;;;1.00;0.93;;;9.90;99.90;;;;;;5014245;28;20218;-92
2023/11/04 00:24:24;;;;;;;1.80;0.70;;;9.90;99.90;;;;;;4997482;28;20241;-91
2023/11/04 00:26:50;;;;;;;1.47;1.27;;;9.90;99.90;;;;;;4996529;28;20249;-92
2023/11/04 00:29:15;;;;;;;2.07;1.00;;;9.90;99.90;;;;;;4998020;28;21120;-92
2023/11/04 00:31:43;;;;;;;1.47;1.37;;;9.90;99.90;;;;;;5030820;28;20217;-93
2023/11/04 00:34:08;;;;;;;2.13;2.03;;;9.90;99.90;;;;;;4997257;28;20206;-94
2023/11/04 00:36:34;;;;;;;9.03;1.23;;;9.90;99.90;;;;;;4989605;28;20225;-93
2023/11/04 00:39:00;;;;;;;4.20;1.17;;;9.90;99.90;;;;;;4997811;28;20297;-92
2023/11/04 00:41:26;;;;;;;1.63;1.53;;;9.90;99.90;;;;;;4996645;28;20189;-91
2023/11/04 00:43:51;;;;;;;1.17;1.07;;;9.90;99.90;;;;;;5012624;28;20627;-94
2023/11/04 00:46:17;;;;;;;0.63;0.63;;;9.90;99.90;;;;;;4997041;28;20217;-91
2023/11/04 00:48:43;;;;;;;1.20;1.10;;;9.90;99.90;;;;;;4996067;28;20225;-91
2023/11/04 00:51:09;;;;;;;2.93;2.40;;;9.90;99.90;;;;;;5012516;28;20688;-91
2023/11/04 00:53:35;;;;;;;1.83;1.57;;;9.90;99.90;;;;;;4995590;28;20198;-91
2023/11/04 00:56:01;;;;;;;1.07;0.97;;;9.90;99.90;;;;;;5029434;28;20182;-94
2023/11/04 00:58:26;;;;;;;1.27;1.03;;;9.90;99.90;;;;;;4996826;28;20284;-92
2023/11/04 01:00:53;;;;;;;2.83;1.27;;;9.90;99.90;;;;;;5030508;28;20217;-94
2023/11/04 01:03:18;;;;;;;1.57;1.47;;;9.90;99.90;;;;;;4997408;28;20214;-94
2023/11/04 01:05:47;;;;;;;2.20;1.47;;;9.90;99.90;;;;;;5013965;28;20296;-94
2023/11/04 01:08:14;;;;;;;1.73;1.47;;;9.90;99.90;;;;;;5014091;28;20190;-91
2023/11/04 01:10:40;;;;;;;1.80;1.70;;;9.90;99.90;;;;;;4997350;28;20214;-95
2023/11/04 01:13:07;;;;;;;1.40;1.30;;;9.90;99.90;;;;;;4995756;28;20711;-93
2023/11/04 01:15:33;;;;;;;1.33;1.27;;;9.90;99.90;;;;;;5030063;28;21200;-92
2023/11/04 01:17:59;;;;;;;1.20;1.13;;;9.90;99.90;;;;;;5012667;28;20667;-91
2023/11/04 01:20:25;;;;;;;1.37;1.03;;;9.90;99.90;;;;;;4995337;28;20188;-91
2023/11/04 01:22:51;;;;;;;1.50;1.40;;;9.90;99.90;;;;;;5045822;28;20175;-93
2023/11/04 01:25:17;;;;;;;1.23;0.90;;;9.90;99.90;;;;;;5018127;28;20223;-91
2023/11/04 01:27:42;;;;;;;2.03;1.80;;;9.90;99.90;;;;;;5012133;28;20218;-91
2023/11/04 01:30:10;;;;;;;2.47;1.87;;;9.90;99.90;;;;;;5012276;28;20587;-91
2023/11/04 01:32:35;;;;;;;2.83;1.37;;;9.80;99.90;;;;;;5012072;28;20198;-91
2023/11/04 01:35:01;;;;;;;1.47;1.13;;;9.80;99.90;;;;;;4996674;28;20197;-91
2023/11/04 01:37:27;;;;;;;19.10;1.53;;;9.90;99.90;;;;;;5012245;28;20226;-92
2023/11/04 01:39:53;;;;;;;2.00;1.90;;;9.80;99.90;;;;;;5012298;28;20218;-91
2023/11/04 01:42:19;;;;;;;2.10;1.90;;;9.80;99.90;;;;;;4996850;28;20252;-91
2023/11/04 01:44:44;;;;;;;1.90;1.47;;;9.80;99.90;;;;;;5012369;28;20216;-91
2023/11/04 01:47:12;;;;;;;1.70;1.43;;;9.80;99.90;;;;;;5012384;28;20197;-91
2023/11/04 01:49:38;;;;;;;1.23;1.13;;;9.80;99.90;;;;;;4993752;28;20203;-91
2023/11/04 01:52:05;;;;;;;2.80;1.37;;;9.70;99.90;;;;;;5028042;28;20761;-92
2023/11/04 01:54:31;;;;;;;1.20;1.10;;;9.70;99.90;;;;;;5012108;28;20264;-91
2023/11/04 01:56:58;;;;;;;1.33;1.23;;;9.70;99.90;;;;;;5031924;28;20248;-91
2023/11/04 01:59:25;;;;;;;2.33;1.73;;;9.70;99.90;;;;;;5016466;28;20237;-91
2023/11/04 02:01:52;;;;;;;2.50;1.73;;;9.60;99.90;;;;;;5001078;28;20194;-91
2023/11/04 02:04:18;;;;;;;1.77;1.60;;;9.60;99.90;;;;;;5000051;28;20293;-91
2023/11/04 02:06:44;;;;;;;1.73;1.37;;;9.60;99.90;;;;;;5014532;28;20317;-91
2023/11/04 02:09:11;;;;;;;2.33;2.13;;;9.60;99.90;;;;;;4999801;28;20244;-91
2023/11/04 02:11:37;;;;;;;1.30;1.20;;;9.70;99.90;;;;;;5014260;28;20190;-91
2023/11/04 02:14:03;;;;;;;1.40;1.07;;;9.70;99.90;;;;;;5015921;28;20267;-91
2023/11/04 02:16:29;;;;;;;0.60;0.60;;;9.70;99.90;;;;;;5015530;28;20234;-92
2023/11/04 02:18:55;;;;;;;1.30;0.87;;;9.60;99.90;;;;;;4998797;28;20202;-91
2023/11/04 02:21:22;;;;;;;1.50;1.30;;;9.60;99.90;;;;;;4998769;28;20257;-91
2023/11/04 02:23:48;;;;;;;9.10;1.57;;;9.60;99.90;;;;;;4988822;28;20293;-91
2023/11/04 02:26:14;;;;;;;1.97;1.87;;;9.60;99.90;;;;;;5008905;28;20183;-91
2023/11/04 02:28:40;;;;;;;1.80;1.30;;;9.60;99.90;;;;;;5015468;28;20644;-91
2023/11/04 02:31:05;;;;;;;1.37;1.37;;;9.70;99.90;;;;;;5015876;28;20206;-91
2023/11/04 02:33:31;;;;;;;1.40;1.20;;;9.70;99.90;;;;;;4998861;28;20284;-91
2023/11/04 02:35:57;;;;;;;2.20;2.03;;;9.60;99.90;;;;;;5014462;28;20261;-91
2023/11/04 02:38:23;;;;;;;2.20;0.87;;;9.60;99.90;;;;;;5031569;28;20208;-91
2023/11/04 02:40:49;;;;;;;1.47;1.47;;;9.60;99.90;;;;;;5014162;28;20273;-91
2023/11/04 02:43:14;;;;;;;1.10;0.70;;;9.60;99.90;;;;;;5014861;28;20208;-91
2023/11/04 02:45:40;;;;;;;2.60;1.37;;;9.60;99.90;;;;;;5015271;28;20210;-91
2023/11/04 02:48:06;;;;;;;1.90;0.90;;;9.60;99.90;;;;;;5031600;28;20208;-92
2023/11/04 02:50:32;;;;;;;2.63;1.87;;;9.60;99.90;;;;;;5013557;28;20198;-91
2023/11/04 02:52:57;;;;;;;1.53;1.10;;;9.60;99.90;;;;;;5014718;28;20179;-91
2023/11/04 02:55:23;;;;;;;1.83;1.73;;;9.60;99.90;;;;;;4998701;28;20627;-91
2023/11/04 02:57:49;;;;;;;1.40;1.30;;;9.60;99.90;;;;;;4997074;28;20425;-91
2023/11/04 03:00:15;;;;;;;2.83;1.80;;;9.60;99.90;;;;;;4997961;28;20226;-91
2023/11/04 03:02:41;;;;;;;2.87;1.27;;;9.60;99.90;;;;;;5015852;28;20288;-91
2023/11/04 03:05:07;;;;;;;1.67;1.57;;;9.60;99.90;;;;;;5015132;28;20586;-91
2023/11/04 03:07:33;;;;;;;1.17;1.07;;;9.70;99.90;;;;;;5046268;28;20214;-91
2023/11/04 03:09:59;;;;;;;1.70;1.53;;;9.70;99.90;;;;;;5022378;28;20203;-91
2023/11/04 03:12:25;;;;;;;0.83;0.83;;;9.70;99.90;;;;;;5022321;28;20597;-91
2023/11/04 03:14:51;;;;;;;1.83;1.70;;;9.70;99.90;;;;;;5030185;28;20213;-91
2023/11/04 03:17:16;;;;;;;1.33;1.27;;;9.70;99.90;;;;;;5030900;28;20201;-90
2023/11/04 03:19:46;;;;;;;1.60;1.50;;;9.70;99.90;;;;;;5029690;28;20213;-91
2023/11/04 03:22:12;;;;;;;1.43;1.17;;;9.70;99.90;;;;;;5031144;28;20749;-91
2023/11/04 03:24:43;;;;;;;2.03;1.63;;;9.70;99.90;;;;;;5030031;28;20210;-91
2023/11/04 03:27:09;;;;;;;1.03;1.00;;;9.70;99.90;;;;;;5029921;28;20235;-91
2023/11/04 03:29:35;;;;;;;1.60;1.57;;;9.70;99.90;;;;;;4996794;28;20706;-91
2023/11/04 03:32:01;;;;;;;2.07;1.87;;;9.70;99.90;;;;;;5015172;28;20193;-91
2023/11/04 03:34:27;;;;;;;2.00;1.47;;;9.70;99.90;;;;;;4998071;28;20241;-90
2023/11/04 03:36:52;;;;;;;0.57;0.57;;;9.70;99.90;;;;;;5029609;28;20302;-91
2023/11/04 03:39:18;;;;;;;1.50;1.40;;;9.70;99.90;;;;;;4998337;28;20217;-94
2023/11/04 03:41:44;;;;;;;1.27;1.17;;;9.70;99.90;;;;;;4999117;28;20220;-92
2023/11/04 03:44:10;;;;;;;0.77;0.70;;;9.70;99.90;;;;;;4998036;28;20670;-92
2023/11/04 03:46:36;;;;;;;1.27;1.10;;;9.70;99.90;;;;;;4997737;28;20313;-94
2023/11/04 03:49:02;;;;;;;0.87;0.87;;;9.70;99.90;;;;;;4998046;28;20369;-94
2023/11/04 03:51:27;;;;;;;0.50;0.50;;;9.70;99.90;;;;;;5022433;28;20257;-93
2023/11/04 03:53:53;;;;;;;1.10;0.90;;;9.70;99.90;;;;;;4996800;28;20219;-93
2023/11/04 03:56:19;;;;;;;11.07;1.70;;;9.70;99.90;;;;;;4999037;28;20195;-91
2023/11/04 03:58:46;;;;;;;1.83;1.70;;;9.70;99.90;;;;;;4997973;28;20252;-94
2023/11/04 04:01:12;;;;;;;0.77;0.73;;;9.70;99.90;;;;;;5014139;28;20670;-91
2023/11/04 04:03:38;;;;;;;1.90;1.80;;;9.80;99.90;;;;;;4996446;28;20241;-91
2023/11/04 04:06:04;;;;;;;1.30;1.23;;;9.80;99.90;;;;;;5047166;28;20296;-91
2023/11/04 04:08:30;;;;;;;1.50;1.40;;;9.80;99.90;;;;;;5012020;28;20199;-91
2023/11/04 04:10:56;;;;;;;1.10;1.10;;;9.80;99.90;;;;;;5012435;28;20201;-91
2023/11/04 04:13:22;;;;;;;2.57;2.03;;;9.80;99.90;;;;;;4997167;28;20215;-91
2023/11/04 04:15:47;;;;;;;1.43;1.33;;;9.80;99.90;;;;;;5012386;28;20215;-92
2023/11/04 04:18:13;;;;;;;0.67;0.60;;;9.90;99.90;;;;;;4996269;28;20230;-91
2023/11/04 04:20:39;;;;;;;2.50;2.30;;;9.90;99.90;;;;;;4995290;28;20229;-91
2023/11/04 04:23:05;;;;;;;2.00;1.80;;;9.90;99.90;;;;;;5029213;28;20321;-91
2023/11/04 04:25:30;;;;;;;5.40;2.03;;;9.90;99.90;;;;;;4997755;28;20365;-91
2023/11/04 04:27:56;;;;;;;1.87;1.43;;;9.90;99.90;;;;;;4996730;28;20242;-91
2023/11/04 04:30:22;;;;;;;2.33;2.07;;;9.90;99.90;;;;;;5012757;28;20242;-90
2023/11/04 04:32:48;;;;;;;1.03;1.03;;;10.00;99.90;;;;;;5029181;28;20210;-91
2023/11/04 04:35:14;;;;;;;1.93;1.10;;;10.00;99.90;;;;;;5013994;28;20218;-91
2023/11/04 04:37:41;;;;;;;1.50;0.97;;;10.00;99.90;;;;;;5011988;28;20222;-91
2023/11/04 04:40:07;;;;;;;1.57;1.47;;;10.00;99.90;;;;;;5028755;28;20359;-92
2023/11/04 04:42:33;;;;;;;5.40;3.10;;;10.00;99.90;;;;;;4995334;28;20214;-90
2023/11/04 04:45:00;;;;;;;3.03;1.60;;;10.00;99.90;;;;;;5021623;28;20214;-91
2023/11/04 04:47:26;;;;;;;1.70;1.60;;;10.00;99.90;;;;;;4996128;28;20297;-91
2023/11/04 04:49:52;;;;;;;2.33;1.30;;;10.00;99.90;;;;;;5012931;28;20196;-92
2023/11/04 04:52:18;;;;;;;2.83;1.60;;;10.00;99.90;;;;;;5018172;28;20221;-91
2023/11/04 04:54:43;;;;;;;1.23;1.13;;;9.90;99.90;;;;;;5013182;28;20214;-93
2023/11/04 04:57:09;;;;;;;2.47;1.50;;;10.00;99.90;;;;;;4997447;28;20243;-93
2023/11/04 04:59:35;;;;;;;3.17;1.37;;;10.00;99.90;;;;;;4996445;28;20197;-91
2023/11/04 05:02:03;;;;;;;2.87;2.67;;;10.00;99.90;;;;;;4996986;28;20647;-92
2023/11/04 05:04:29;;;;;;;2.53;2.10;;;10.00;99.90;;;;;;5030064;28;20260;-93
2023/11/04 05:06:56;;;;;;;2.90;2.60;;;10.00;99.90;;;;;;4998193;28;20206;-94
2023/11/04 05:09:23;;;;;;;2.43;1.40;;;10.00;99.90;;;;;;5012496;28;21256;-90
2023/11/04 05:11:49;;;;;;;2.70;2.50;;;10.00;99.90;;;;;;4995185;28;20218;-94
2023/11/04 05:14:15;;;;;;;4.83;2.37;;;10.00;99.90;;;;;;4997416;28;20197;-93
2023/11/04 05:16:41;;;;;;;4.13;2.83;;;10.10;99.90;;;;;;5020588;28;20221;-91
2023/11/04 05:19:06;;;;;;;2.60;2.40;;;10.10;99.90;;;;;;4995359;28;20255;-93
2023/11/04 05:21:32;;;;;;;2.73;1.80;;;10.10;99.90;;;;;;4996096;28;20250;-93
2023/11/04 05:23:59;;;;;;;1.90;1.80;;;10.10;99.90;;;;;;5011707;28;20717;-93
2023/11/04 05:26:25;;;;;;;1.77;1.67;;;10.10;99.90;;;;;;4996643;28;20194;-93
2023/11/04 05:28:51;;;;;;;3.83;3.50;;;10.10;99.90;;;;;;4996187;28;20230;-92
2023/11/04 05:31:17;;;;;;;7.50;1.97;;;10.20;99.90;;;;;;5000983;28;20230;-94
2023/11/04 05:33:42;;;;;;;6.03;2.37;;;10.20;99.90;;;;;;5000128;28;20219;-94
2023/11/04 05:36:10;;;;;;;2.17;1.83;;;10.20;99.90;;;;;;5015460;28;20210;-91
2023/11/04 05:38:36;;;;;;;1.57;1.43;;;10.10;99.90;;;;;;5000720;28;20210;-93
2023/11/04 05:41:02;;;;;;;3.23;2.33;;;10.20;99.90;;;;;;5032728;28;20187;-90
2023/11/04 05:43:28;;;;;;;3.50;2.13;;;10.20;99.90;;;;;;5048828;28;20206;-93
2023/11/04 05:45:53;;;;;;;1.70;1.53;;;10.20;99.90;;;;;;4999246;28;20244;-91
2023/11/04 05:48:21;;;;;;;1.83;1.60;;;10.20;99.90;;;;;;5022553;28;20263;-93
2023/11/04 05:50:47;;;;;;;2.27;2.00;;;10.20;99.90;;;;;;5015871;28;20210;-92
2023/11/04 05:53:14;;;;;;;4.43;2.90;;;10.20;99.90;;;;;;5048584;28;20178;-92
2023/11/04 05:55:40;;;;;;;3.23;2.63;;;10.20;99.90;;;;;;4999415;28;21105;-91
2023/11/04 05:58:06;;;;;;;3.23;1.90;;;10.20;99.90;;;;;;5015040;28;20313;-93
2023/11/04 06:00:32;;;;;;;3.57;3.27;;;10.20;99.90;;;;;;5016026;28;20211;-91
2023/11/04 06:02:58;;;;;;;4.03;3.63;;;10.20;99.90;;;;;;4999471;28;20209;-94
2023/11/04 06:05:24;;;;;;;2.67;2.47;;;10.20;99.90;;;;;;5015220;28;20198;-92
2023/11/04 06:07:50;;;;;;;1.90;1.73;;;10.30;99.90;;;;;;4999159;28;20207;-92
2023/11/04 06:10:16;;;;;;;1.63;1.53;;;10.30;99.90;;;;;;5015367;28;20253;-92
2023/11/04 06:12:42;;;;;;;2.57;1.93;;;10.30;99.90;;;;;;5022833;28;20218;-91
2023/11/04 06:15:09;;;;;;;4.27;2.50;;;10.30;99.90;;;;;;5015461;28;20350;-92
2023/11/04 06:17:35;;;;;;;2.63;2.17;;;10.40;99.90;;;;;;5015122;28;20206;-92
2023/11/04 06:20:01;;;;;;;5.70;3.80;;;10.40;99.90;;;;;;5048965;28;20182;-92
2023/11/04 06:22:29;;;;;;;3.20;2.17;;;10.40;99.90;;;;;;5014269;28;20206;-93
2023/11/04 06:24:55;;;;;;;7.37;3.13;;;10.50;99.90;;;;;;5031244;28;20233;-88
2023/11/04 06:27:21;;;;;;;3.33;3.07;;;10.50;99.90;;;;;;5016225;28;20230;-90
2023/11/04 06:29:47;;;;;;;4.33;3.07;;;10.50;99.90;;;;;;5016296;28;20642;-90
2023/11/04 06:32:13;;;;;;;3.97;3.20;;;10.50;99.90;;;;;;5031953;28;20201;-90
2023/11/04 06:34:40;;;;;;;3.20;2.43;;;10.50;99.90;;;;;;5017392;28;20214;-90
2023/11/04 06:37:06;;;;;;;2.07;1.87;;;10.50;99.90;;;;;;5030501;28;20214;-90
2023/11/04 06:39:32;;;;;;;2.27;1.87;;;10.50;99.90;;;;;;5004304;28;20268;-89
2023/11/04 06:41:58;;;;;;;3.60;2.07;;;10.50;99.90;;;;;;5013325;28;20219;-89
2023/11/04 06:44:24;;;;;;;3.03;1.73;;;10.50;99.90;;;;;;5031344;28;20766;-89
2023/11/04 06:46:49;;;;;;;2.37;2.27;;;10.40;99.90;;;;;;5019247;28;20190;-89
2023/11/04 06:49:15;;;;;;;2.87;2.33;;;10.40;99.90;;;;;;5013759;28;21090;-89
2023/11/04 06:51:42;;;;;;;2.47;1.90;;;10.40;99.90;;;;;;5029893;28;20280;-90
2023/11/04 06:54:08;;;;;;;2.07;1.97;;;10.40;99.90;;;;;;5012973;28;20225;-89
2023/11/04 06:56:34;;;;;;;3.43;2.60;;;10.40;99.90;;;;;;5030963;28;20245;-90
2023/11/04 06:59:00;;;;;;;4.37;2.83;;;10.40;99.90;;;;;;5047489;28;20166;-90
2023/11/04 07:01:26;;;;;;;3.20;2.57;;;10.40;99.90;;;;;;5014153;28;20209;-89
2023/11/04 07:03:52;;;;;;;2.13;1.87;;;10.30;99.90;;;;;;4997714;28;20255;-91
2023/11/04 07:06:18;;;;;;;2.07;1.87;;;10.30;99.90;;;;;;5014853;28;20222;-90
2023/11/04 07:08:45;;;;;;;1.50;1.30;;;10.30;99.90;;;;;;5013912;28;20233;-91
2023/11/04 07:11:12;;;;;;;2.47;1.60;;;10.30;99.90;;;;;;5032884;28;20682;-91
2023/11/04 07:13:39;;;;;;;1.87;1.77;;;10.30;99.90;;;;;;5045365;28;20230;-89
2023/11/04 07:16:05;;;;;;;2.63;1.63;;;10.40;99.90;;;;;;5015037;28;20198;-91
2023/11/04 07:18:31;;;;;;;3.07;2.07;;;10.40;99.90;;;;;;5001781;28;20649;-90
2023/11/04 07:21:00;;;;;;;2.73;2.40;;;10.40;99.90;;;;;;5014144;28;20209;-90
2023/11/04 07:23:29;;;;;;;4.17;3.77;;;10.50;99.90;;;;;;5015063;28;20199;-91
2023/11/04 07:25:55;;;;;;;3.70;2.70;;;10.40;99.90;;;;;;5014813;28;20183;-90
2023/11/04 07:28:24;;;;;;;9.60;2.90;;;10.40;99.90;;;;;;5014343;28;20288;-91
2023/11/04 07:30:51;;;;;;;2.13;2.03;;;10.40;99.90;;;;;;5015435;28;20297;-91
2023/11/04 07:33:18;;;;;;;3.37;3.07;;;10.40;99.90;;;;;;5006904;28;20718;-93
2023/11/04 07:35:43;;;;;;;5.77;3.10;;;10.50;99.90;;;;;;5013348;28;20236;-90
2023/11/04 07:38:09;;;;;;;5.03;2.77;;;10.50;99.90;;;;;;5049142;28;20206;-96
2023/11/04 07:40:39;;;;;;;5.00;1.53;;;10.60;99.90;;;;;;5039767;28;20198;-92
2023/11/04 07:43:08;;;;;;;3.27;2.30;;;10.70;99.90;;;;;;5012817;28;20271;-92
2023/11/04 07:45:33;;;;;;;4.00;2.10;;;10.60;99.90;;;;;;4998164;28;20210;-89
2023/11/04 07:47:59;;;;;;;6.43;1.33;;;10.70;99.90;;;;;;5013599;28;20736;-91
2023/11/04 07:50:25;;;;;;;3.83;2.83;;;10.60;99.90;;;;;;4997920;28;20178;-91
2023/11/04 07:52:51;;;;;;;2.70;2.20;;;10.60;99.90;;;;;;4997772;28;20176;-91
2023/11/04 07:55:17;;;;;;;3.13;2.70;;;10.60;99.90;;;;;;5013106;28;20255;-92
2023/11/04 07:57:42;;;;;;;4.43;3.27;;;10.60;99.90;;;;;;5013333;28;20230;-92
2023/11/04 08:00:10;;;;;;;9.63;1.20;;;10.60;99.90;;;;;;5045867;28;20288;-90
2023/11/04 08:02:39;;;;;;;3.73;1.73;;;10.60;99.90;;;;;;5029908;28;20182;-90
2023/11/04 08:05:07;;;;;;;2.23;1.97;;;10.60;99.90;;;;;;4995891;28;20190;-92
2023/11/04 08:07:33;;;;;;;2.17;1.90;;;10.70;99.90;;;;;;5031762;28;20244;-92
2023/11/04 08:09:59;;;;;;;3.13;2.43;;;10.60;99.90;;;;;;4995937;28;20229;-90
2023/11/04 08:12:25;;;;;;;3.20;2.73;;;10.70;99.90;;;;;;4996243;28;20227;-91
2023/11/04 08:14:51;;;;;;;1.40;1.30;;;10.70;99.90;;;;;;4997256;28;20210;-90
2023/11/04 08:17:17;;;;;;;0.70;0.70;;;10.70;99.90;;;;;;5012663;28;20220;-90
2023/11/04 08:19:43;;;;;;;3.10;2.10;;;10.80;99.90;;;;;;5028930;28;20214;-91
2023/11/04 08:22:12;;;;;;;2.43;2.30;;;10.70;99.90;;;;;;4996066;28;20210;-90
2023/11/04 08:24:37;;;;;;;1.30;1.20;;;10.80;99.90;;;;;;4996430;28;20752;-90
2023/11/04 08:27:03;;;;;;;2.03;1.93;;;10.80;99.90;;;;;;5028848;28;20234;-89
2023/11/04 08:29:30;;;;;;;1.30;1.20;;;10.80;99.90;;;;;;5020614;28;20242;-89
2023/11/04 08:31:57;;;;;;;1.53;1.43;;;10.80;99.90;;;;;;5020932;28;20746;-90
2023/11/04 08:34:23;;;;;;;1.67;1.37;;;10.80;99.90;;;;;;4997128;28;20213;-89
2023/11/04 08:36:49;;;;;;;2.17;2.03;;;10.80;99.90;;;;;;5012360;28;20802;-91
2023/11/04 08:39:15;;;;;;;1.80;1.70;;;10.80;99.90;;;;;;4997241;28;20216;-91
2023/11/04 08:41:40;;;;;;;1.63;1.27;;;10.70;99.90;;;;;;5044746;28;20222;-87
2023/11/04 08:44:06;;;;;;;1.50;1.40;;;10.80;99.90;;;;;;4996343;28;20244;-89
2023/11/04 08:46:35;;;;;;;1.57;1.47;;;10.80;99.90;;;;;;4995167;28;20214;-92
2023/11/04 08:49:01;;;;;;;2.93;1.20;;;10.80;99.90;;;;;;5027995;28;20230;-91
2023/11/04 08:51:26;;;;;;;1.27;1.13;;;10.80;99.90;;;;;;5028735;28;20573;-96
2023/11/04 08:53:52;;;;;;;1.10;1.10;;;10.90;99.90;;;;;;5028545;28;20624;-91
2023/11/04 08:56:21;;;;;;;1.13;1.03;;;10.90;99.90;;;;;;5029355;28;20283;-93
2023/11/04 08:58:48;;;;;;;2.27;1.53;;;10.90;99.90;;;;;;5034327;28;20264;-92
2023/11/04 09:01:14;;;;;;;1.50;1.40;;;11.10;99.90;;;;;;5034941;28;20225;-92
2023/11/04 09:03:40;;;;;;;3.40;1.37;;;11.10;99.90;;;;;;5022474;28;20224;-92
2023/11/04 09:06:07;;;;;;;1.70;1.00;;;11.00;99.90;;;;;;4995908;28;20210;-89
2023/11/04 09:08:33;;;;;;;2.37;2.07;;;11.00;99.90;;;;;;5027601;28;20558;-93
2023/11/04 09:10:59;;;;;;;2.80;1.20;;;10.90;99.90;;;;;;5028174;28;20217;-93
2023/11/04 09:13:24;;;;;;;1.30;0.93;;;10.80;99.90;;;;;;5030565;28;20295;-92
2023/11/04 09:15:50;;;;;;;1.83;1.63;;;10.80;99.90;;;;;;5045282;28;20221;-91
2023/11/04 09:18:16;;;;;;;1.53;1.43;;;10.80;99.90;;;;;;5029095;28;20227;-93
2023/11/04 09:20:43;;;;;;;1.63;1.53;;;10.80;99.90;;;;;;5028982;28;20640;-94
2023/11/04 09:23:08;;;;;;;1.37;1.13;;;10.80;99.90;;;;;;5013224;28;20266;-89
2023/11/04 09:25:35;;;;;;;2.90;1.43;;;10.80;99.90;;;;;;5036112;28;20178;-90
2023/11/04 09:28:01;;;;;;;1.80;0.93;;;10.80;99.90;;;;;;5028017;28;20221;-90
2023/11/04 09:30:26;;;;;;;2.10;1.83;;;10.80;99.90;;;;;;4997150;28;20221;-90
2023/11/04 09:32:53;;;;;;;0.67;0.67;;;10.80;99.90;;;;;;5020160;28;20712;-91
2023/11/04 09:35:20;;;;;;;1.73;1.63;;;10.90;99.90;;;;;;5029325;28;20209;-94
2023/11/04 09:37:46;;;;;;;1.33;1.33;;;11.00;99.90;;;;;;5014282;28;20658;-90
2023/11/04 09:40:12;;;;;;;0.97;0.97;;;11.10;99.90;;;;;;5012560;28;20182;-91
2023/11/04 09:42:39;;;;;;;10.73;1.83;;;11.20;99.90;;;;;;5011560;28;20247;-93
2023/11/04 09:45:08;;;;;;;1.03;1.03;;;11.20;99.90;;;;;;5030126;28;20570;-94
2023/11/04 09:47:38;;;;;;;1.37;0.63;;;11.40;99.90;;;;;;5030428;28;20211;-93
2023/11/04 09:50:04;;;;;;;1.27;1.00;;;11.50;99.90;;;;;;5027146;28;20678;-90
2023/11/04 09:52:32;;;;;;;2.73;1.50;;;11.50;99.90;;;;;;5013687;28;20190;-93
2023/11/04 09:55:01;;;;;;;2.70;1.00;;;11.60;99.90;;;;;;4975387;28;20213;-95
2023/11/04 09:57:27;;;;;;;1.93;1.63;;;11.60;99.90;;;;;;5033513;28;20593;-93
2023/11/04 09:59:53;;;;;;;0.93;0.93;;;11.70;99.90;;;;;;5010829;28;20278;-91
2023/11/04 10:02:19;;;;;;;0.80;0.80;;;11.50;99.90;;;;;;5042283;28;20301;-90
2023/11/04 10:04:44;;;;;;;1.70;0.87;;;11.60;99.90;;;;;;4985422;28;20186;-91
2023/11/04 10:07:10;;;;;;;2.03;1.13;;;11.60;99.90;;;;;;4994456;28;20194;-90
2023/11/04 10:09:42;;;;;;;1.10;1.00;;;11.70;99.90;;;;;;5009255;28;20815;-89
2023/11/04 10:12:08;;;;;;;0.73;0.67;;;11.70;99.90;;;;;;4994327;28;20219;-89
2023/11/04 10:14:34;;;;;;;1.17;1.13;;;11.60;99.90;;;;;;4993905;28;20215;-91
2023/11/04 10:17:00;;;;;;;0.60;0.60;;;11.40;99.90;;;;;;5029814;28;20217;-91
2023/11/04 10:19:26;;;;;;;1.13;1.13;;;11.40;99.90;;;;;;4998845;28;20555;-93
2023/11/04 10:21:53;;;;;;;4.70;0.93;;;11.40;99.90;;;;;;5021808;28;20229;-93
2023/11/04 10:24:19;;;;;;;0.93;0.93;;;11.30;99.90;;;;;;5015376;28;20256;-93
2023/11/04 10:26:45;;;;;;;2.90;1.13;;;11.30;99.90;;;;;;4997543;28;21180;-94
2023/11/04 10:29:11;;;;;;;3.13;1.87;;;11.20;99.90;;;;;;5031236;28;20229;-93
2023/11/04 10:31:38;;;;;;;0.80;0.80;;;11.20;99.90;;;;;;4999353;28;20206;-91
2023/11/04 10:34:06;;;;;;;0.27;0.27;;;11.30;99.90;;;;;;5031457;28;20635;-93
2023/11/04 10:36:47;;;;;;;0.60;0.60;;;11.20;99.90;;;;;;5044868;28;20219;-95
2023/11/04 10:39:15;;;;;;;1.33;1.23;;;11.20;99.90;;;;;;5032800;28;20215;-93
2023/11/04 10:41:43;;;;;;;0.77;0.77;;;11.20;99.90;;;;;;5034081;28;20211;-94
2023/11/04 10:44:15;;;;;;;0.83;0.83;;;11.20;99.90;;;;;;5046356;28;20773;-92
2023/11/04 10:46:58;;;;;;;1.87;1.73;;;11.20;99.90;;;;;;5030550;28;20584;-91
2023/11/04 10:49:33;;;;;;;10.63;0.87;;;11.20;99.90;;;;;;5023771;28;20186;-93
2023/11/04 10:52:12;;;;;;;1.20;0.77;;;11.20;99.90;;;;;;5031899;28;20201;-94
2023/11/04 10:55:00;;;;;;;0.80;0.67;;;11.20;99.90;;;;;;5031027;28;20217;-94
2023/11/04 10:57:38;;;;;;;4.17;2.27;;;11.20;99.90;;;;;;5040921;28;20222;-94
2023/11/04 11:00:19;;;;;;;1.47;1.47;;;11.30;99.90;;;;;;5030714;28;20261;-93
2023/11/04 11:02:47;;;;;;;1.07;1.07;;;11.50;99.90;;;;;;5028317;28;20222;-92
2023/11/04 11:05:14;;;;;;;12.60;1.10;;;11.70;99.90;;;;;;5030277;28;20831;-92
2023/11/04 11:07:46;;;;;;;5.10;1.60;;;12.10;99.90;;;;;;5013226;28;20206;-91
2023/11/04 11:10:19;;;;;;;1.00;0.90;;;12.60;99.90;;;;;;5020741;28;20185;-92
2023/11/04 11:13:00;;;;;;;0.73;0.73;;;12.90;99.90;;;;;;5045784;28;20218;-91
2023/11/04 11:15:27;;;;;;;0.77;0.77;;;12.80;99.90;;;;;;5029534;28;20226;-92
2023/11/04 11:18:01;;;;;;;1.17;0.50;;;12.60;99.90;;;;;;5018541;28;20230;-92
2023/11/04 11:20:29;;;;;;;1.27;0.70;;;12.90;99.90;;;;;;5047383;28;20221;-92
2023/11/04 11:23:00;;;;;;;0.77;0.40;;;12.90;99.90;;;;;;5029792;28;20236;-92
2023/11/04 11:25:34;;;;;;;0.60;0.60;;;13.20;99.90;;;;;;5029475;28;20546;-92
2023/11/04 11:28:02;;;;;;;1.00;0.77;;;13.00;99.90;;;;;;5028225;28;20298;-91
2023/11/04 11:30:54;;;;;;;0.53;0.53;;;12.80;99.90;;;;;;5035574;28;20253;-94
2023/11/04 11:33:27;;;;;;;0.30;0.30;;;12.50;99.90;;;;;;5036066;28;20227;-93
2023/11/04 11:35:57;;;;;;;0.20;0.20;;;12.20;99.90;;;;;;5040449;28;20218;-95
2023/11/04 11:38:31;;;;;;;1.80;0.70;;;12.00;99.90;;;;;;5047392;28;20230;-93
2023/11/04 11:41:14;;;;;;;2.83;0.83;;;11.90;99.90;;;;;;5040558;28;20214;-89
2023/11/04 11:43:40;;;;;;;0.70;0.70;;;12.00;99.90;;;;;;5015210;28;20309;-94
2023/11/04 11:46:06;;;;;;;0.30;0.30;;;12.00;99.90;;;;;;5047488;28;20631;-92
2023/11/04 11:48:51;;;;;;;2.00;0.63;;;12.00;99.90;;;;;;5017192;28;20220;-95
2023/11/04 11:51:18;;;;;;;0.50;0.50;;;12.10;99.90;;;;;;5017745;28;20222;-93
2023/11/04 11:53:46;;;;;;;0.70;0.70;;;12.10;99.90;;;;;;5033184;28;20221;-95
2023/11/04 11:56:18;;;;;;;0.40;0.40;;;12.10;99.90;;;;;;5032342;28;20696;-93
2023/11/04 11:58:47;;;;;;;2.13;1.00;;;12.20;99.90;;;;;;5044662;28;20627;-92
2023/11/04 12:01:15;;;;;;;3.70;1.33;;;12.40;99.90;;;;;;5046533;28;20186;-92
2023/11/04 12:03:41;;;;;;;0.57;0.50;;;12.50;99.90;;;;;;5028859;28;20224;-93
2023/11/04 12:06:11;;;;;;;0.40;0.40;;;12.40;99.90;;;;;;5029220;28;20598;-91
2023/11/04 12:08:37;;;;;;;0.60;0.60;;;12.20;99.90;;;;;;5044103;28;20213;-92
2023/11/04 12:11:03;;;;;;;1.33;0.90;;;12.00;99.90;;;;;;5014707;28;20588;-92
2023/11/04 12:13:29;;;;;;;0.97;0.40;;;11.90;99.90;;;;;;5012954;28;20186;-91
2023/11/04 12:15:55;;;;;;;0.20;0.20;;;11.70;99.90;;;;;;4996057;28;20269;-91
2023/11/04 12:18:21;;;;;;;0.60;0.60;;;11.70;99.90;;;;;;4995064;28;20229;-95
2023/11/04 12:20:47;;;;;;;4.63;0.67;;;11.70;99.90;;;;;;4996433;28;20216;-93
2023/11/04 12:23:14;;;;;;;3.33;0.70;;;11.60;99.90;;;;;;5004901;28;20226;-93
2023/11/04 12:25:46;;;;;;;0.30;0.30;;;11.60;99.90;;;;;;5027504;28;20257;-88
2023/11/04 12:28:20;;;;;;;0.40;0.40;;;11.50;99.90;;;;;;5029279;28;20354;-93
2023/11/04 12:31:01;;;;;;;1.70;1.27;;;11.50;99.90;;;;;;5028146;28;20210;-92
2023/11/04 12:33:40;;;;;;;1.30;0.60;;;11.60;99.90;;;;;;5027772;28;20248;-94
2023/11/04 12:36:09;;;;;;;1.17;1.10;;;11.50;99.90;;;;;;5012095;28;20638;-92
2023/11/04 12:38:36;;;;;;;1.00;1.00;;;11.50;99.90;;;;;;5026081;28;20276;-92
2023/11/04 12:41:10;;;;;;;1.90;0.80;;;11.50;99.90;;;;;;5028638;28;20289;-92
2023/11/04 12:43:37;;;;;;;4.20;0.87;;;11.50;99.90;;;;;;5029427;28;20175;-93
2023/11/04 12:46:09;;;;;;;0.50;0.50;;;11.40;99.90;;;;;;5011917;28;20198;-93
2023/11/04 12:48:38;;;;;;;0.93;0.93;;;11.50;99.90;;;;;;5026760;28;20230;-92